Terminal Aerodrome Forecast
Issued by NWS Wilmington, OH

Current Version | Previous Version | Graphics & Text | Print | Product List | Glossary On
Versions: 1 2 3 4 5 6 7 8 9 10 11 12 13 14 15 16 17
000
FTUS41 KILN 210227 AAA
TAFDAY
TAF AMD
KDAY 210227Z 2102/2124 01006KT 4SM -SHRA OVC025
      TEMPO 2102/2104 2SM -SHRA BR OVC015
     FM210400 VRB03KT 5SM BR VCSH OVC015
     FM210600 01005KT 5SM BR OVC008
     FM211200 36009KT 5SM BR OVC015
     FM211500 36009KT P6SM BKN035
     FM211700 34010KT P6SM BKN150=

USA.gov is the U.S. government's official web portal to all federal, state and local government web resources and services.